Tuesday, October 23, 2018, 8:41 PM EDT
Back to Local

KCEF, Chicopee Falls / Westover Air Force Base

Location: Chicopee, MA, United States Lat: 42.2
Local Time: 8:41 PM EDT ( 0:41 GMT) Lon: -72.533
Time Zone: US/Eastern Elev: 246 ft

Show me the last for .
Show Decoded

2018-10-23 19:56 METAR KCEF 232356Z 29008KT 10SM -RA FEW027 BKN040 BKN060 OVC075 09/06 A2990 RMK
                 AO2A SLP133 P0000 60000 T00930060 10144 20078 52015 =
2018-10-23 19:46 METAR KCEF 232346Z AUTO 26007KT 10SM -RA FEW007 FEW012 FEW034 SCT043 BKN060
                 OVC075 10/05 A2990 RMK AO2 RAB24E34DZB34E39RAB39 SLP133 =
2018-10-23 19:24 METAR KCEF 232324Z 25014G20KT 10SM -RA BKN060 BKN080 09/04 A2990 RMK AO2A SLP133
                 =
2018-10-23 18:56 METAR KCEF 232256Z 00000KT 10SM FEW060 BKN095 09/05 A2988 RMK AO2A PK WND
                 28031/06 SLP126 T00930045 =
2018-10-23 18:14 METAR KCEF 232214Z 28013G22KT 10SM FEW023 BKN070 BKN170 12/06 A2989 RMK AO2A
                 WSHFT 07 PRESRR SLP129 =
2018-10-23 17:56 METAR KCEF 232156Z 00000KT 10SM FEW070 BKN180 10/07 A2987 RMK AO2A LTG DSNT SE
                 SLP122 T01040071 =
2018-10-23 16:56 METAR KCEF 232056Z 34004KT 10SM FEW027 FEW050 14/09 A2986 RMK AO2A LTG DSNT E-SE
                 SLP119 60000 T01390085 =
2018-10-23 16:17 METAR KCEF 232017Z COR 27005KT 10SM FEW027 SCT050 BKN120 16/08 A2985 RMK AO2A
                 LTG DSNT NE-SE SLP115 COR 2027 =
2018-10-23 15:56 METAR KCEF 231956Z 00000KT 10SM -RA BKN028 OVC037 14/06 A2986 RMK AO2A LTG DSNT
                 NE-SE SLP119 P0000 T01410064 =
2018-10-23 15:40 METAR KCEF 231940Z 25007KT 10SM -TSRA BKN030 BKN038 OVC110 15/08 A2987 RMK AO2A
                 SLP122 =
2018-10-23 15:29 METAR KCEF 231929Z 20007KT 10SM TS BKN033 OVC100 15/08 A2987 RMK AO2A SLP122 =
2018-10-23 15:25 METAR KCEF 231925Z 21007KT 10SM VCTS BKN033 OVC100 16/08 A2987 RMK AO2A SLP122 =
2018-10-23 14:56 METAR KCEF 231856Z 15003KT 10SM SCT033 BKN050 BKN075 14/08 A2988 RMK AO2A SLP125
                 P0000 T01420082 =
2018-10-23 14:33 METAR KCEF 231833Z 17009KT 10SM -RA SCT033 BKN075 BKN100 15/07 A2990 RMK AO2A
                 SLP132 =
2018-10-23 13:56 METAR KCEF 231756Z 20007KT 10SM SCT037 BKN075 BKN100 16/07 A2992 RMK AO2A SLP139
                 T01550068 10158 20027 57043 =
2018-10-23 12:56 METAR KCEF 231656Z 17012KT 10SM FEW036 FEW075 BKN100 15/06 A2996 RMK AO2A PRESFR
                 SLP153 T01500060 =
2018-10-23 11:56 METAR KCEF 231556Z 00000KT 10SM SCT041 BKN085 11/04 A3003 RMK AO2A SLP177
                 T01050042 =
2018-10-23 10:56 METAR KCEF 231456Z 00000KT 10SM SCT039 BKN100 08/04 A3005 RMK AO2A SLP184
                 T00820036 58011 =
2018-10-23 09:56 METAR KCEF 231356Z 00000KT 10SM OVC100 06/03 A3007 RMK AO2A SLP191 T00570032 =
2018-10-23 08:56 METAR KCEF 231256Z 00000KT 10SM FEW085 BKN100 04/02 A3009 RMK AO2A SLP197
                 T00420024 =
2018-10-23 07:56 METAR KCEF 231156Z 00000KT 10SM FEW080 BKN095 03/02 A3008 RMK AO2A SLP194
                 T00270017 10027 20006 57010 =
2018-10-23 06:56 METAR KCEF 231056Z 27003KT 10SM OVC095 02/02 A3009 RMK AO2A SLP197 T00240015 =
2018-10-23 05:56 METAR KCEF 230956Z AUTO 00000KT 10SM SCT075 OVC095 02/01 A3010 RMK AO2 SLP201
                 T00210011 =
2018-10-23 04:56 METAR KCEF 230856Z AUTO 00000KT 10SM OVC090 02/01 A3011 RMK AO2 SLP204 T00210011
                 57010 =
2018-10-23 03:56 METAR KCEF 230756Z AUTO 00000KT 10SM OVC085 02/01 A3012 RMK AO2 SLP207 T00190009
                 =
2018-10-23 02:56 METAR KCEF 230656Z AUTO 00000KT 10SM OVC085 02/01 A3014 RMK AO2 SLP214 T00160006
                 =
2018-10-23 01:56 METAR KCEF 230556Z AUTO 03003KT 10SM M 01/00 A3014 RMK AO2 SLP214 T00071003
                 10045 21017 58007 $ =
2018-10-23 00:56 METAR KCEF 230456Z AUTO 00000KT 10SM BKN080 M01/M02 A3015 RMK AO2 SLP218
                 T10071016 401061044 =
2018-10-22 23:56 METAR KCEF 230356Z AUTO 00000KT 10SM FEW090 00/M01 A3016 RMK AO2 SLP221
                 T10051014 =
2018-10-22 22:56 METAR KCEF 230256Z 00000KT 10SM FEW040 FEW100 00/M01 A3016 RMK AO2A SLP221
                 T00021009 50003 =
2018-10-22 21:56 METAR KCEF 230156Z 00000KT 10SM FEW040 SCT100 01/00 A3016 RMK AO2A SLP221
                 T00101005 =
2018-10-22 20:56 METAR KCEF 230056Z 00000KT 10SM FEW040 SCT100 03/00 A3017 RMK AO2A SLP225
                 T00331002 =

Support USWX by starting your Amazon purchase here.